12/04/05 - 23h:05mDenunciar

Dassault Mirage 2000

Gostaria de prestar neste espaço uma pequena homenagem à toda equipe da Revista Asas. Não só pelo grande trabalho realizado e já reconhecido por todos os amantes, entusiastas e profissionais do meio, mas especialmente pelo empenho em buscar a edição de número 15 com título "Dinastia Mirage", a qual estava em falta na minha coleção. Ciente da minha paixão por esta série de aeronaves francesas, a equipe foi capaz de ligar para bancas e livrarias em São Paulo responsáveis pela revenda da publicação, onde apenas uma (!!!) foi encontrada por refugo (não havia sido vendida). Uma perfeita equipe: Deus reservando a revista e a equipe de Asas encontrando-a. Muito obrigado amigos, realmente fico lisongeado com o empenho e espero um dia apertar a mão de todos os responsáveis pela "Revista de Cultura e História da Aviação"! PARABÉNS REVISTA ASAS!





METAR SBPB 130200Z 00000KT 9999 SCT017 BKN300 27/26 Q1012=

Comentários (0)

Fotos postadas a mais de 15 dias não podem receber comentários.